createdAt,value
2022-08-05T00:00:46.299Z,101781.28
2022-08-05T00:03:16.589Z,101786.56
2022-08-05T00:06:04.777Z,101781.28
2022-08-05T00:08:36.193Z,101784.03
2022-08-05T00:11:07.528Z,101752.63
2022-08-05T00:13:52.922Z,101751.09
2022-08-05T00:16:36.101Z,101730.38
2022-08-05T00:19:11.066Z,101709.69
2022-08-05T00:21:39.134Z,101699.44
2022-08-05T00:24:18.844Z,101698.66
2022-08-05T00:26:50.777Z,101694.41
2022-08-05T00:29:22.784Z,101692.81
2022-08-05T00:32:12.984Z,101693.78
2022-08-05T00:35:04.581Z,101698.19
2022-08-05T00:37:50.355Z,101700.88
2022-08-05T00:40:26.801Z,101706.31
2022-08-05T00:42:57.274Z,101698.53
2022-08-05T00:45:38.254Z,101699.56
2022-08-05T00:48:10.129Z,101694.47
2022-08-05T00:50:39.055Z,101698.13
2022-08-05T00:54:00.396Z,101704.31
2022-08-05T00:55:58.077Z,101700.94
2022-08-05T00:58:27.539Z,101698.41
2022-08-05T01:00:56.411Z,101698.41
2022-08-05T01:03:30.884Z,101707.28
2022-08-05T01:06:03.760Z,101710.03
2022-08-05T01:08:43.575Z,101711.97
2022-08-05T01:11:21.942Z,101709.44
2022-08-05T01:14:01.221Z,101711.31
2022-08-05T01:16:34.932Z,101712.13
2022-08-05T01:19:17.322Z,101723.50
2022-08-05T01:21:59.980Z,101721.84
2022-08-05T01:24:45.821Z,101729.72
2022-08-05T01:27:27.033Z,101737.69
2022-08-05T01:30:05.430Z,101744.66
2022-08-05T01:32:49.359Z,101740.31
2022-08-05T01:35:51.240Z,101748.13
2022-08-05T01:38:14.568Z,101744.72
2022-08-05T01:40:54.208Z,101749.22
2022-08-05T01:43:24.269Z,101735.38
2022-08-05T01:45:56.399Z,101720.72
2022-08-05T01:48:25.940Z,101718.38
2022-08-05T01:50:56.805Z,101701.16
2022-08-05T01:53:57.246Z,101689.97
2022-08-05T01:58:10.037Z,101669.28
2022-08-05T01:59:08.964Z,101664.28
2022-08-05T02:01:40.321Z,101648.75
2022-08-05T02:04:10.588Z,101645.53
2022-08-05T02:06:39.550Z,101634.44
2022-08-05T02:09:08.577Z,101623.34
2022-08-05T02:11:48.081Z,101612.22
2022-08-05T02:14:26.476Z,101612.38
2022-08-05T02:17:01.341Z,101613.41
2022-08-05T02:19:34.939Z,101610.03
2022-08-05T02:22:09.433Z,101615.34
2022-08-05T02:24:51.498Z,101617.22
2022-08-05T02:27:29.837Z,101619.09
2022-08-05T02:30:13.722Z,101627.03
2022-08-05T02:32:44.722Z,101626.28
2022-08-05T02:35:19.097Z,101629.00
2022-08-05T02:37:59.115Z,101638.72
2022-08-05T02:40:28.855Z,101626.69
2022-08-05T02:42:58.076Z,101609.41
2022-08-05T02:45:28.546Z,101589.59
2022-08-05T02:48:19.782Z,101576.72
2022-08-05T02:50:58.728Z,101566.38
2022-08-05T02:53:27.137Z,101559.63
2022-08-05T02:56:01.936Z,101555.47
2022-08-05T02:58:32.101Z,101562.63
2022-08-05T03:01:03.106Z,101576.88
2022-08-05T03:04:04.280Z,101734.41
2022-08-05T03:06:56.395Z,101756.41
2022-08-05T03:09:15.959Z,101753.13
2022-08-05T03:11:57.948Z,101748.09
2022-08-05T03:14:26.818Z,101754.34
2022-08-05T03:16:55.018Z,101738.75
2022-08-05T03:19:34.439Z,101727.63
2022-08-05T03:22:16.613Z,101722.53
2022-08-05T03:24:51.033Z,101729.66
2022-08-05T03:27:22.091Z,101734.13
2022-08-05T03:30:08.072Z,101738.63
2022-08-05T03:32:37.707Z,101744.78
2022-08-05T03:35:09.118Z,101749.25
2022-08-05T03:37:45.709Z,101761.56
2022-08-05T03:40:15.381Z,101770.31
2022-08-05T03:42:52.906Z,101778.25
2022-08-05T03:45:22.995Z,101781.78
2022-08-05T03:47:51.886Z,101795.00
2022-08-05T03:50:35.154Z,101809.88
2022-08-05T03:55:49.907Z,101815.19
2022-08-05T03:56:17.184Z,101818.81
2022-08-05T03:58:56.850Z,101833.78
2022-08-05T04:01:28.715Z,101843.41
2022-08-05T04:04:09.781Z,101847.13
2022-08-05T04:06:47.986Z,101853.38
2022-08-05T04:09:20.334Z,101863.00
2022-08-05T04:11:54.351Z,101877.13
2022-08-05T04:14:30.405Z,101881.53
2022-08-05T04:17:03.387Z,101892.94
2022-08-05T04:19:44.264Z,101914.69
2022-08-05T04:22:15.007Z,101921.69
2022-08-05T04:24:52.413Z,101930.38
2022-08-05T04:27:28.116Z,101933.81
2022-08-05T04:30:11.179Z,101949.56
2022-08-05T04:32:39.519Z,101960.00
2022-08-05T04:35:17.444Z,101977.38
2022-08-05T04:38:02.053Z,101985.16
2022-08-05T04:40:35.720Z,102003.47
2022-08-05T04:43:04.062Z,102013.88
2022-08-05T04:45:48.252Z,102030.47
2022-08-05T04:48:26.994Z,102044.38
2022-08-05T04:51:02.773Z,102071.41
2022-08-05T04:53:35.533Z,102086.16
2022-08-05T04:56:14.429Z,102115.72
2022-08-05T04:58:44.323Z,102136.66
2022-08-05T05:01:12.422Z,102150.53
2022-08-05T05:03:42.294Z,102159.28
2022-08-05T05:06:36.528Z,102173.25
2022-08-05T05:09:01.092Z,102178.50
2022-08-05T05:11:41.671Z,102192.50
2022-08-05T05:14:27.786Z,102198.63
2022-08-05T05:17:00.530Z,102209.03
2022-08-05T05:19:37.061Z,102229.03
2022-08-05T05:22:23.964Z,102229.03
2022-08-05T05:24:58.186Z,102243.88
2022-08-05T05:27:41.773Z,102261.25
2022-08-05T05:30:15.650Z,102278.66
2022-08-05T05:33:00.493Z,102295.16
2022-08-05T05:35:37.710Z,102315.25
2022-08-05T05:38:08.995Z,102338.75
2022-08-05T05:40:49.846Z,102353.59
2022-08-05T05:43:21.796Z,102381.53
2022-08-05T05:45:55.902Z,102399.78
2022-08-05T05:48:27.283Z,102414.50
2022-08-05T05:50:55.997Z,102437.16
2022-08-05T05:53:24.117Z,102445.81
2022-08-05T05:56:00.472Z,102453.59
2022-08-05T05:58:31.630Z,102466.63
2022-08-05T06:01:12.986Z,102472.63
2022-08-05T06:04:00.300Z,102488.28
2022-08-05T06:06:31.010Z,102500.47
2022-08-05T06:08:59.712Z,102510.00
2022-08-05T06:11:29.291Z,102516.03
2022-08-05T06:13:57.982Z,102527.31
2022-08-05T06:16:32.726Z,102534.19
2022-08-05T06:19:07.528Z,102548.88
2022-08-05T06:21:38.821Z,102551.41
2022-08-05T06:24:12.593Z,102579.25
2022-08-05T06:26:51.295Z,102593.06
2022-08-05T06:29:25.185Z,102613.03
2022-08-05T06:32:25.036Z,102633.03
2022-08-05T06:34:57.912Z,102642.56
2022-08-05T06:37:56.014Z,102653.94
2022-08-05T06:40:18.531Z,102669.59
2022-08-05T06:42:52.011Z,102673.00
2022-08-05T06:45:44.649Z,102693.03
2022-08-05T06:48:36.741Z,102704.41
2022-08-05T06:50:57.865Z,102706.97
2022-08-05T06:53:28.482Z,102718.22
2022-08-05T06:55:57.168Z,102728.69
2022-08-05T06:58:35.495Z,102746.13
2022-08-05T07:01:06.482Z,102753.88
2022-08-05T07:03:36.177Z,102772.25
2022-08-05T07:06:05.704Z,102786.97
2022-08-05T07:08:42.736Z,102800.88
2022-08-05T07:11:15.349Z,102819.16
2022-08-05T07:14:02.934Z,102830.41
2022-08-05T07:18:00.373Z,102848.66
2022-08-05T07:22:28.960Z,102885.09
2022-08-05T07:25:24.050Z,102921.69
2022-08-05T07:27:57.721Z,102945.16
2022-08-05T07:30:33.670Z,102947.78
2022-08-05T07:33:05.566Z,102934.84
2022-08-05T07:36:03.189Z,102935.78
2022-08-05T07:38:34.149Z,102930.53
2022-08-05T07:42:06.830Z,102945.38
2022-08-05T07:43:53.315Z,102971.53
2022-08-05T07:46:26.828Z,102977.56
2022-08-05T07:49:01.516Z,102984.53
2022-08-05T07:51:41.049Z,103001.06
2022-08-05T07:54:26.413Z,103021.09
2022-08-05T07:57:14.627Z,103055.91
2022-08-05T07:59:48.908Z,103065.44
2022-08-05T08:02:18.781Z,103049.00
2022-08-05T08:04:48.244Z,103026.59
2022-08-05T08:07:17.941Z,103034.41
2022-08-05T08:09:46.651Z,103047.53
2022-08-05T08:12:37.448Z,103050.94
2022-08-05T08:15:09.625Z,103078.81
2022-08-05T08:17:52.920Z,103101.41
2022-08-05T08:20:45.404Z,103163.19
2022-08-05T08:24:02.726Z,103238.00
2022-08-05T08:26:04.462Z,103295.44
2022-08-05T08:28:36.394Z,103348.63
2022-08-05T08:31:05.607Z,103371.22
2022-08-05T08:33:37.991Z,103391.34
2022-08-05T08:36:39.009Z,103441.03
2022-08-05T08:38:57.390Z,103448.03
2022-08-05T08:41:51.134Z,103369.69
2022-08-05T08:45:23.174Z,103353.19
2022-08-05T08:47:47.607Z,103421.13
2022-08-05T08:50:13.020Z,103470.72
2022-08-05T08:52:51.862Z,103489.00
2022-08-05T08:55:32.194Z,103499.63
2022-08-05T08:58:12.815Z,103536.16
2022-08-05T09:00:41.803Z,103582.34
2022-08-05T09:03:11.274Z,103544.88
2022-08-05T09:06:08.935Z,103494.41
2022-08-05T09:08:30.127Z,103504.81
2022-08-05T09:10:58.664Z,103547.56
2022-08-05T09:13:31.424Z,103592.91
2022-08-05T09:16:00.280Z,103600.72
2022-08-05T09:18:28.655Z,103646.88
2022-08-05T09:20:59.500Z,103700.06
2022-08-05T09:23:28.845Z,103732.28
2022-08-05T09:26:10.951Z,103775.91
2022-08-05T09:28:49.693Z,103701.69
2022-08-05T09:32:38.797Z,103678.13
2022-08-05T09:34:07.545Z,103701.75
2022-08-05T09:36:45.901Z,103739.25
2022-08-05T09:39:41.131Z,103754.09
2022-08-05T09:42:13.652Z,103785.34
2022-08-05T09:44:56.691Z,103821.13
2022-08-05T09:47:49.128Z,103876.06
2022-08-05T09:50:38.110Z,103879.59
2022-08-05T09:53:17.153Z,103870.78
2022-08-05T09:56:03.590Z,103903.97
2022-08-05T09:58:42.077Z,103924.94
2022-08-05T10:01:22.668Z,103930.13
2022-08-05T10:04:03.640Z,103944.94
2022-08-05T10:06:32.947Z,103928.38
2022-08-05T10:09:25.150Z,103899.47
2022-08-05T10:12:18.654Z,103900.31
2022-08-05T10:15:17.100Z,103865.53
2022-08-05T10:18:08.142Z,103857.69
2022-08-05T10:20:38.031Z,103823.72
2022-08-05T10:23:21.910Z,103804.50
2022-08-05T10:25:58.999Z,103850.78
2022-08-05T10:28:30.414Z,103908.31
2022-08-05T10:32:49.269Z,103966.78
2022-08-05T10:33:52.412Z,103973.75
2022-08-05T10:36:23.662Z,103962.38
2022-08-05T10:39:00.399Z,103904.69
2022-08-05T10:41:46.887Z,103858.47
2022-08-05T10:44:20.318Z,103848.69
2022-08-05T10:46:54.247Z,103873.06
2022-08-05T10:49:27.441Z,103899.16
2022-08-05T10:52:05.604Z,103965.56
2022-08-05T10:54:56.048Z,103958.53
2022-08-05T10:58:07.737Z,103995.28
2022-08-05T11:00:42.258Z,103967.28
2022-08-05T11:03:25.563Z,103976.00
2022-08-05T11:06:15.474Z,103899.25
2022-08-05T11:09:16.755Z,103876.53
2022-08-05T11:11:52.912Z,103908.84
2022-08-05T11:14:57.872Z,103999.69
2022-08-05T11:18:00.279Z,104029.38
2022-08-05T11:20:44.314Z,104068.59
2022-08-05T11:24:02.276Z,104158.69
2022-08-05T11:26:28.973Z,104122.00
2022-08-05T11:29:13.434Z,104087.91
2022-08-05T11:31:58.744Z,104044.28
2022-08-05T11:34:47.515Z,104093.09
2022-08-05T11:38:30.792Z,104175.34
2022-08-05T11:41:12.756Z,104269.75
2022-08-05T11:44:05.173Z,104249.56
2022-08-05T11:46:37.836Z,104190.94
2022-08-05T11:49:27.644Z,104149.88
2022-08-05T11:51:57.646Z,104240.88
2022-08-05T11:54:33.284Z,104204.97
2022-08-05T11:57:08.470Z,104180.53
2022-08-05T11:59:52.336Z,104155.97
2022-08-05T12:02:32.013Z,104091.44
2022-08-05T12:05:07.471Z,104123.69
2022-08-05T12:08:08.263Z,104054.66
2022-08-05T12:10:43.710Z,104021.50
2022-08-05T12:13:17.046Z,104036.31
2022-08-05T12:15:49.969Z,103978.63
2022-08-05T12:18:20.645Z,103929.88
2022-08-05T12:20:53.681Z,104022.38
2022-08-05T12:23:23.082Z,104104.53
2022-08-05T12:25:53.340Z,104040.72
2022-08-05T12:28:35.347Z,103983.06
2022-08-05T12:31:05.778Z,103962.19
2022-08-05T12:33:36.070Z,103946.44
2022-08-05T12:36:08.402Z,104025.06
2022-08-05T12:38:39.593Z,104122.06
2022-08-05T12:41:13.801Z,104189.47
2022-08-05T12:43:56.868Z,104205.13
2022-08-05T12:46:29.109Z,104212.09
2022-08-05T12:48:59.170Z,104262.78
2022-08-05T12:52:12.789Z,104338.00
2022-08-05T12:54:26.555Z,104499.09
2022-08-05T12:56:56.220Z,104604.25
2022-08-05T12:59:46.697Z,104568.22
2022-08-05T13:02:16.814Z,104576.94
2022-08-05T13:04:54.383Z,104630.44
2022-08-05T13:07:55.008Z,104683.91
2022-08-05T13:10:20.181Z,104789.38
2022-08-05T13:12:51.295Z,104693.53
2022-08-05T13:15:35.915Z,104691.78
2022-08-05T13:18:20.133Z,104713.81
2022-08-05T13:20:49.907Z,104662.06
2022-08-05T13:23:22.603Z,104561.25
2022-08-05T13:25:59.636Z,104502.47
2022-08-05T13:28:32.350Z,104555.91
2022-08-05T13:31:03.368Z,104642.69
2022-08-05T13:34:24.869Z,104744.41
2022-08-05T13:36:31.300Z,104742.75
2022-08-05T13:39:00.888Z,104753.25
2022-08-05T13:41:37.702Z,104831.28
2022-08-05T13:44:06.466Z,104850.72
2022-08-05T13:46:44.296Z,104845.28
2022-08-05T13:49:22.611Z,104699.75
2022-08-05T13:51:50.686Z,104631.41
2022-08-05T13:54:26.389Z,104638.44
2022-08-05T13:56:54.814Z,104612.03
2022-08-05T13:59:27.040Z,104641.88
2022-08-05T14:01:59.587Z,104740.91
2022-08-05T14:04:49.431Z,104759.38
2022-08-05T14:07:25.653Z,104770.72
2022-08-05T14:10:11.540Z,104762.66
2022-08-05T14:12:42.823Z,104812.75
2022-08-05T14:16:07.500Z,104852.34
2022-08-05T14:18:00.688Z,104901.47
2022-08-05T14:20:29.670Z,104903.16
2022-08-05T14:22:58.254Z,104911.09
2022-08-05T14:25:28.624Z,105006.81
2022-08-05T14:27:58.856Z,105023.41
2022-08-05T14:30:28.087Z,105031.38
2022-08-05T14:32:57.112Z,105014.63
2022-08-05T14:35:50.132Z,104986.47
2022-08-05T14:38:27.657Z,105033.00
2022-08-05T14:41:06.304Z,105091.91
2022-08-05T14:44:00.194Z,105133.19
2022-08-05T14:46:28.124Z,105078.72
2022-08-05T14:48:57.818Z,105097.97
2022-08-05T14:51:30.678Z,105098.88
2022-08-05T14:54:26.138Z,105116.50
2022-08-05T14:56:48.907Z,105102.41
2022-08-05T14:59:21.235Z,105183.28
2022-08-05T15:01:49.949Z,105338.97
2022-08-05T15:04:20.564Z,105352.06
2022-08-05T15:06:50.397Z,105315.09
2022-08-05T15:09:51.330Z,105242.94
2022-08-05T15:12:09.428Z,105238.56
2022-08-05T15:14:48.314Z,105243.00
2022-08-05T15:17:46.019Z,105165.59
2022-08-05T15:20:13.414Z,105137.41
2022-08-05T15:22:52.227Z,105146.16
2022-08-05T15:25:23.512Z,105213.91
2022-08-05T15:28:14.248Z,105234.94
2022-08-05T15:30:43.830Z,105327.34
2022-08-05T15:33:56.600Z,105391.56
2022-08-05T15:36:03.573Z,105506.22
2022-08-05T15:38:35.799Z,105569.56
2022-08-05T15:41:23.060Z,105546.63
2022-08-05T15:43:55.016Z,105553.66
2022-08-05T15:46:24.045Z,105616.19
2022-08-05T15:49:00.818Z,105633.81
2022-08-05T15:52:04.510Z,105601.25
2022-08-05T15:54:34.515Z,105571.34
2022-08-05T15:57:03.718Z,105624.19
2022-08-05T15:59:38.077Z,105641.78
2022-08-05T16:02:09.740Z,105694.72
2022-08-05T16:04:43.991Z,105695.59
2022-08-05T16:07:13.193Z,105701.75
2022-08-05T16:09:42.075Z,105674.44
2022-08-05T16:12:12.149Z,105642.63
2022-08-05T16:14:41.808Z,105692.09
2022-08-05T16:17:09.879Z,105744.13
2022-08-05T16:20:05.471Z,105810.31
2022-08-05T16:22:27.791Z,105787.31
2022-08-05T16:25:08.187Z,105822.56
2022-08-05T16:27:59.626Z,105879.13
2022-08-05T16:30:28.829Z,105962.25
2022-08-05T16:32:57.654Z,105959.56
2022-08-05T16:35:28.355Z,105946.31
2022-08-05T16:38:16.802Z,105986.84
2022-08-05T16:40:55.720Z,105959.41
2022-08-05T16:43:31.566Z,105940.91
2022-08-05T16:46:12.921Z,105892.25
2022-08-05T16:48:50.911Z,105905.50
2022-08-05T16:51:19.245Z,105894.03
2022-08-05T16:54:03.155Z,105803.97
2022-08-05T16:56:41.799Z,105792.56
2022-08-05T16:59:10.657Z,105874.63
2022-08-05T17:01:53.785Z,105948.78
2022-08-05T17:04:26.553Z,106027.34
2022-08-05T17:06:55.622Z,106161.81
2022-08-05T17:09:25.160Z,106235.25
2022-08-05T17:11:59.299Z,106200.72
2022-08-05T17:14:36.755Z,106226.34
2022-08-05T17:17:14.628Z,106288.25
2022-08-05T17:19:46.135Z,106322.75
2022-08-05T17:22:17.754Z,106351.13
2022-08-05T17:24:57.884Z,106289.22
2022-08-05T17:27:33.832Z,106363.53
2022-08-05T17:30:03.476Z,106241.41
2022-08-05T17:32:34.626Z,106041.47
2022-08-05T17:35:04.090Z,105868.38
2022-08-05T17:37:40.312Z,105821.69
2022-08-05T17:40:14.637Z,105818.13
2022-08-05T17:42:50.442Z,105859.69
2022-08-05T17:45:21.760Z,106015.22
2022-08-05T17:47:55.391Z,106116.91
2022-08-05T17:50:28.060Z,106121.28
2022-08-05T17:52:58.993Z,106033.84
2022-08-05T17:55:37.549Z,105917.13
2022-08-05T17:58:09.650Z,105844.72
2022-08-05T18:00:39.846Z,105814.69
2022-08-05T18:03:28.124Z,105827.09
2022-08-05T18:06:04.710Z,105933.97
2022-08-05T18:08:34.160Z,105983.47
2022-08-05T18:11:03.162Z,106006.47
2022-08-05T18:13:36.750Z,106025.84
2022-08-05T18:16:13.340Z,105942.78
2022-08-05T18:18:44.474Z,105808.56
2022-08-05T18:21:21.416Z,105670.97
2022-08-05T18:23:56.766Z,105533.53
2022-08-05T18:26:29.085Z,105364.41
2022-08-05T18:29:00.505Z,105153.25
2022-08-05T18:31:33.162Z,105005.69
2022-08-05T18:34:06.387Z,104864.41
2022-08-05T18:36:41.282Z,104731.84
2022-08-05T18:39:42.010Z,104631.00
2022-08-05T18:42:06.041Z,104491.69
2022-08-05T18:44:49.287Z,104400.63
2022-08-05T18:47:26.359Z,104326.28
2022-08-05T18:50:15.445Z,104250.09
2022-08-05T18:52:50.752Z,104174.03
2022-08-05T18:55:20.031Z,104136.50
2022-08-05T18:57:53.072Z,104091.88
2022-08-05T19:00:27.012Z,104054.31
2022-08-05T19:03:03.599Z,104024.59
2022-08-05T19:06:13.328Z,103994.91
2022-08-05T19:08:30.750Z,103967.81
2022-08-05T19:11:04.585Z,103958.19
2022-08-05T19:13:36.066Z,103921.44
2022-08-05T19:16:24.477Z,103904.00
2022-08-05T19:18:56.644Z,103870.84
2022-08-05T19:21:34.385Z,103833.25
2022-08-05T19:24:06.653Z,103807.97
2022-08-05T19:26:55.056Z,103769.59
2022-08-05T19:29:26.755Z,103725.06
2022-08-05T19:32:06.201Z,103691.03
2022-08-05T19:35:06.458Z,103666.69
2022-08-05T19:38:04.432Z,103635.19
2022-08-05T19:40:24.510Z,103630.84
2022-08-05T19:43:04.566Z,103605.41
2022-08-05T19:45:36.866Z,103612.50
2022-08-05T19:48:06.355Z,103597.63
2022-08-05T19:50:35.180Z,103567.94
2022-08-05T19:53:09.345Z,103538.28
2022-08-05T19:56:14.086Z,103519.13
2022-08-05T19:58:29.211Z,103497.38
2022-08-05T20:00:58.002Z,103481.66
2022-08-05T20:03:27.477Z,103465.09
2022-08-05T20:06:15.350Z,103457.22
2022-08-05T20:08:47.531Z,103466.91
2022-08-05T20:11:17.944Z,103463.38
2022-08-05T20:13:58.263Z,103467.78
2022-08-05T20:16:27.257Z,103473.03
2022-08-05T20:18:55.786Z,103460.81
2022-08-05T20:21:25.427Z,103467.84
2022-08-05T20:23:56.486Z,103474.03
2022-08-05T20:26:25.849Z,103464.44
2022-08-05T20:28:56.821Z,103455.72
2022-08-05T20:31:36.805Z,103452.25
2022-08-05T20:34:11.643Z,103456.69
2022-08-05T20:36:43.310Z,103451.47
2022-08-05T20:39:16.331Z,103456.72
2022-08-05T20:41:46.675Z,103457.66
2022-08-05T20:44:28.920Z,103469.91
2022-08-05T20:46:59.487Z,103462.06
2022-08-05T20:49:28.196Z,103478.78
2022-08-05T20:51:58.072Z,103477.91
2022-08-05T20:54:42.643Z,103478.84
2022-08-05T20:57:41.860Z,103483.25
2022-08-05T21:00:21.466Z,103495.53
2022-08-05T21:03:01.369Z,103497.31
2022-08-05T21:05:47.727Z,103502.59
2022-08-05T21:08:17.783Z,103495.63
2022-08-05T21:10:48.970Z,103490.38
2022-08-05T21:13:26.551Z,103500.91
2022-08-05T21:16:06.252Z,103506.28
2022-08-05T21:18:34.259Z,103499.22
2022-08-05T21:21:03.980Z,103489.63
2022-08-05T21:23:37.095Z,103488.81
2022-08-05T21:26:12.655Z,103485.38
2022-08-05T21:28:47.897Z,103476.66
2022-08-05T21:31:19.410Z,103471.50
2022-08-05T21:33:49.397Z,103461.91
2022-08-05T21:36:19.038Z,103451.47
2022-08-05T21:38:55.975Z,103445.41
2022-08-05T21:41:26.061Z,103439.28
2022-08-05T21:44:04.451Z,103446.41
2022-08-05T21:46:34.242Z,103439.41
2022-08-05T21:49:07.273Z,103429.81
2022-08-05T21:52:21.846Z,103425.50
2022-08-05T21:54:27.921Z,103420.31
2022-08-05T21:57:31.398Z,103413.38
2022-08-05T22:00:04.028Z,103416.91
2022-08-05T22:02:34.680Z,103409.09
2022-08-05T22:05:04.319Z,103409.09
2022-08-05T22:07:39.921Z,103408.22
2022-08-05T22:10:26.533Z,103395.19
2022-08-05T22:12:58.808Z,103397.84
2022-08-05T22:16:00.481Z,103394.41
2022-08-05T22:18:15.909Z,103388.34
2022-08-05T22:20:47.854Z,103377.84
2022-08-05T22:24:02.403Z,103370.00
2022-08-05T22:26:49.772Z,103377.91
2022-08-05T22:29:26.294Z,103363.91
2022-08-05T22:31:59.599Z,103353.50
2022-08-05T22:34:31.901Z,103343.88
2022-08-05T22:37:00.709Z,103345.69
2022-08-05T22:39:34.489Z,103331.66
2022-08-05T22:42:09.898Z,103320.34
2022-08-05T22:44:42.514Z,103323.06
2022-08-05T22:47:28.659Z,103318.75
2022-08-05T22:50:20.886Z,103302.16
2022-08-05T22:52:48.381Z,103304.00
2022-08-05T22:55:19.168Z,103299.72
2022-08-05T22:57:49.138Z,103287.59
2022-08-05T23:00:21.501Z,103275.41
2022-08-05T23:02:50.825Z,103260.66
2022-08-05T23:05:22.032Z,103252.00
2022-08-05T23:07:51.190Z,103234.63
2022-08-05T23:10:20.923Z,103232.97
2022-08-05T23:12:54.669Z,103225.19
2022-08-05T23:15:26.731Z,103218.31
2022-08-05T23:18:01.154Z,103200.09
2022-08-05T23:20:32.130Z,103179.25
2022-08-05T23:23:00.745Z,103177.50
2022-08-05T23:25:51.905Z,103163.66
2022-08-05T23:28:22.238Z,103150.59
2022-08-05T23:30:54.703Z,103148.06
2022-08-05T23:34:02.953Z,103156.78
2022-08-05T23:36:13.474Z,103144.53
2022-08-05T23:38:42.972Z,103126.19
2022-08-05T23:41:11.922Z,103120.16
2022-08-05T23:44:05.367Z,103108.78
2022-08-05T23:46:30.813Z,103106.22
2022-08-05T23:49:01.500Z,103094.88
2022-08-05T23:51:55.081Z,103081.84
2022-08-05T23:54:25.960Z,103069.72
2022-08-05T23:57:03.371Z,103056.72
